sensor_id;sensor_type;location;lat;lon;timestamp;temperature;humidity
32640;DHT22;19049;52.524;11.468;2023-07-13T00:00:11;15.60;80.70
32640;DHT22;19049;52.524;11.468;2023-07-13T00:02:37;15.60;81.00
32640;DHT22;19049;52.524;11.468;2023-07-13T00:05:03;15.70;97.70
32640;DHT22;19049;52.524;11.468;2023-07-13T00:07:29;16.00;97.40
32640;DHT22;19049;52.524;11.468;2023-07-13T00:12:31;16.20;90.40
32640;DHT22;19049;52.524;11.468;2023-07-13T00:14:58;16.20;95.30
32640;DHT22;19049;52.524;11.468;2023-07-13T00:17:25;15.70;96.80
32640;DHT22;19049;52.524;11.468;2023-07-13T00:22:17;15.40;82.60
32640;DHT22;19049;52.524;11.468;2023-07-13T00:24:44;15.00;96.40
32640;DHT22;19049;52.524;11.468;2023-07-13T00:29:37;15.80;89.30
32640;DHT22;19049;52.524;11.468;2023-07-13T00:32:07;14.80;96.50
32640;DHT22;19049;52.524;11.468;2023-07-13T00:34:33;15.20;81.90
32640;DHT22;19049;52.524;11.468;2023-07-13T00:36:58;14.90;96.50
32640;DHT22;19049;52.524;11.468;2023-07-13T00:39:24;15.10;96.40
32640;DHT22;19049;52.524;11.468;2023-07-13T00:41:50;14.30;90.20
32640;DHT22;19049;52.524;11.468;2023-07-13T00:44:18;15.60;96.00
32640;DHT22;19049;52.524;11.468;2023-07-13T00:46:43;15.10;84.20
32640;DHT22;19049;52.524;11.468;2023-07-13T00:49:13;15.00;95.80
32640;DHT22;19049;52.524;11.468;2023-07-13T00:51:48;15.00;85.20
32640;DHT22;19049;52.524;11.468;2023-07-13T00:54:18;15.00;85.60
32640;DHT22;19049;52.524;11.468;2023-07-13T00:56:45;15.10;85.60
32640;DHT22;19049;52.524;11.468;2023-07-13T00:59:13;15.10;85.30
32640;DHT22;19049;52.524;11.468;2023-07-13T01:01:40;15.80;96.30
32640;DHT22;19049;52.524;11.468;2023-07-13T01:04:06;15.10;85.40
32640;DHT22;19049;52.524;11.468;2023-07-13T01:06:35;15.10;85.80
32640;DHT22;19049;52.524;11.468;2023-07-13T01:09:01;15.30;97.30
32640;DHT22;19049;52.524;11.468;2023-07-13T01:11:28;15.10;86.00
32640;DHT22;19049;52.524;11.468;2023-07-13T01:13:53;15.20;86.10
32640;DHT22;19049;52.524;11.468;2023-07-13T01:16:25;15.60;97.20
32640;DHT22;19049;52.524;11.468;2023-07-13T01:18:52;16.00;92.60
32640;DHT22;19049;52.524;11.468;2023-07-13T01:21:18;15.90;97.30
32640;DHT22;19049;52.524;11.468;2023-07-13T01:23:44;15.00;97.00
32640;DHT22;19049;52.524;11.468;2023-07-13T01:26:10;14.40;86.90
32640;DHT22;19049;52.524;11.468;2023-07-13T01:28:37;15.10;96.70
32640;DHT22;19049;52.524;11.468;2023-07-13T01:31:03;16.50;96.70
32640;DHT22;19049;52.524;11.468;2023-07-13T01:33:29;15.90;96.40
32640;DHT22;19049;52.524;11.468;2023-07-13T01:35:55;14.80;96.20
32640;DHT22;19049;52.524;11.468;2023-07-13T01:38:23;15.70;97.30
32640;DHT22;19049;52.524;11.468;2023-07-13T01:40:51;15.90;98.00
32640;DHT22;19049;52.524;11.468;2023-07-13T01:43:17;16.00;98.50
32640;DHT22;19049;52.524;11.468;2023-07-13T01:45:43;15.80;99.60
32640;DHT22;19049;52.524;11.468;2023-07-13T01:48:10;16.00;99.20
32640;DHT22;19049;52.524;11.468;2023-07-13T01:50:36;16.00;88.40
32640;DHT22;19049;52.524;11.468;2023-07-13T01:53:02;16.00;88.40
32640;DHT22;19049;52.524;11.468;2023-07-13T01:55:28;15.60;99.00
32640;DHT22;19049;52.524;11.468;2023-07-13T01:57:54;16.10;88.50
32640;DHT22;19049;52.524;11.468;2023-07-13T02:00:20;16.10;88.30
32640;DHT22;19049;52.524;11.468;2023-07-13T02:02:45;16.10;88.30
32640;DHT22;19049;52.524;11.468;2023-07-13T02:05:11;16.10;88.10
32640;DHT22;19049;52.524;11.468;2023-07-13T02:07:38;16.00;88.00
32640;DHT22;19049;52.524;11.468;2023-07-13T02:10:05;16.00;88.00
32640;DHT22;19049;52.524;11.468;2023-07-13T02:12:31;15.40;99.90
32640;DHT22;19049;52.524;11.468;2023-07-13T02:14:57;15.90;88.10
32640;DHT22;19049;52.524;11.468;2023-07-13T02:17:22;15.80;99.40
32640;DHT22;19049;52.524;11.468;2023-07-13T02:19:48;15.90;88.30
32640;DHT22;19049;52.524;11.468;2023-07-13T02:22:13;15.90;88.70
32640;DHT22;19049;52.524;11.468;2023-07-13T02:24:39;15.80;88.30
32640;DHT22;19049;52.524;11.468;2023-07-13T02:27:05;15.80;88.90
32640;DHT22;19049;52.524;11.468;2023-07-13T02:29:31;15.90;99.40
32640;DHT22;19049;52.524;11.468;2023-07-13T02:31:57;15.70;89.20
32640;DHT22;19049;52.524;11.468;2023-07-13T02:34:22;16.40;96.30
32640;DHT22;19049;52.524;11.468;2023-07-13T02:39:14;16.20;99.90
32640;DHT22;19049;52.524;11.468;2023-07-13T02:41:39;15.30;99.30
32640;DHT22;19049;52.524;11.468;2023-07-13T02:44:05;15.30;99.40
32640;DHT22;19049;52.524;11.468;2023-07-13T02:46:32;15.70;90.00
32640;DHT22;19049;52.524;11.468;2023-07-13T02:48:58;15.70;90.10
32640;DHT22;19049;52.524;11.468;2023-07-13T02:51:24;16.50;94.50
32640;DHT22;19049;52.524;11.468;2023-07-13T02:53:49;16.00;99.30
32640;DHT22;19049;52.524;11.468;2023-07-13T02:56:15;15.70;90.00
32640;DHT22;19049;52.524;11.468;2023-07-13T02:58:41;15.70;89.70
32640;DHT22;19049;52.524;11.468;2023-07-13T03:01:12;15.60;99.90
32640;DHT22;19049;52.524;11.468;2023-07-13T03:03:38;15.30;98.60
32640;DHT22;19049;52.524;11.468;2023-07-13T03:06:04;15.40;92.30
32640;DHT22;19049;52.524;11.468;2023-07-13T03:08:31;15.80;98.50
32640;DHT22;19049;52.524;11.468;2023-07-13T03:11:18;15.20;98.30
32640;DHT22;19049;52.524;11.468;2023-07-13T03:13:45;16.10;99.90
32640;DHT22;19049;52.524;11.468;2023-07-13T03:16:11;15.20;99.20
32640;DHT22;19049;52.524;11.468;2023-07-13T03:18:37;15.50;99.00
32640;DHT22;19049;52.524;11.468;2023-07-13T03:21:04;16.10;99.10
32640;DHT22;19049;52.524;11.468;2023-07-13T03:23:30;16.30;98.70
32640;DHT22;19049;52.524;11.468;2023-07-13T03:26:07;15.50;98.50
32640;DHT22;19049;52.524;11.468;2023-07-13T03:28:33;15.70;93.00
32640;DHT22;19049;52.524;11.468;2023-07-13T03:31:04;15.90;90.50
32640;DHT22;19049;52.524;11.468;2023-07-13T03:33:31;15.60;99.70
32640;DHT22;19049;52.524;11.468;2023-07-13T03:38:23;15.70;99.20
32640;DHT22;19049;52.524;11.468;2023-07-13T03:40:49;15.10;99.70
32640;DHT22;19049;52.524;11.468;2023-07-13T03:43:15;15.90;99.50
32640;DHT22;19049;52.524;11.468;2023-07-13T03:45:41;15.00;98.00
32640;DHT22;19049;52.524;11.468;2023-07-13T03:50:32;15.60;98.60
32640;DHT22;19049;52.524;11.468;2023-07-13T03:52:59;15.30;90.20
32640;DHT22;19049;52.524;11.468;2023-07-13T03:58:01;16.00;98.70
32640;DHT22;19049;52.524;11.468;2023-07-13T04:00:45;15.60;99.80
32640;DHT22;19049;52.524;11.468;2023-07-13T04:03:11;15.30;99.00
32640;DHT22;19049;52.524;11.468;2023-07-13T04:05:37;15.20;98.80
32640;DHT22;19049;52.524;11.468;2023-07-13T04:08:05;15.40;98.80
32640;DHT22;19049;52.524;11.468;2023-07-13T04:10:31;15.60;98.90
32640;DHT22;19049;52.524;11.468;2023-07-13T04:12:57;16.40;99.10
32640;DHT22;19049;52.524;11.468;2023-07-13T04:15:22;15.50;98.90
32640;DHT22;19049;52.524;11.468;2023-07-13T04:20:14;16.20;99.30
32640;DHT22;19049;52.524;11.468;2023-07-13T04:25:06;15.80;99.30
32640;DHT22;19049;52.524;11.468;2023-07-13T04:27:31;16.00;98.90
32640;DHT22;19049;52.524;11.468;2023-07-13T04:32:23;16.40;92.00
32640;DHT22;19049;52.524;11.468;2023-07-13T04:34:49;16.70;92.50
32640;DHT22;19049;52.524;11.468;2023-07-13T04:37:18;17.10;99.90
32640;DHT22;19049;52.524;11.468;2023-07-13T04:39:44;17.10;99.70
32640;DHT22;19049;52.524;11.468;2023-07-13T04:42:09;17.60;92.40
32640;DHT22;19049;52.524;11.468;2023-07-13T04:44:35;18.00;92.40
32640;DHT22;19049;52.524;11.468;2023-07-13T04:47:01;18.20;96.30
32640;DHT22;19049;52.524;11.468;2023-07-13T04:49:26;18.50;91.70
32640;DHT22;19049;52.524;11.468;2023-07-13T04:51:52;19.40;98.40
32640;DHT22;19049;52.524;11.468;2023-07-13T04:54:17;18.80;90.60
32640;DHT22;19049;52.524;11.468;2023-07-13T04:56:43;18.90;90.30
32640;DHT22;19049;52.524;11.468;2023-07-13T04:59:08;19.00;90.50
32640;DHT22;19049;52.524;11.468;2023-07-13T05:01:34;19.10;90.80
32640;DHT22;19049;52.524;11.468;2023-07-13T05:04:00;19.20;90.70
32640;DHT22;19049;52.524;11.468;2023-07-13T05:06:26;19.30;90.40
32640;DHT22;19049;52.524;11.468;2023-07-13T05:08:51;19.70;98.20
32640;DHT22;19049;52.524;11.468;2023-07-13T05:11:18;19.40;89.90
32640;DHT22;19049;52.524;11.468;2023-07-13T05:13:43;19.30;89.60
32640;DHT22;19049;52.524;11.468;2023-07-13T05:16:09;19.30;89.40
32640;DHT22;19049;52.524;11.468;2023-07-13T05:18:35;19.30;90.00
32640;DHT22;19049;52.524;11.468;2023-07-13T05:21:06;19.30;90.30
32640;DHT22;19049;52.524;11.468;2023-07-13T05:23:34;19.20;98.20
32640;DHT22;19049;52.524;11.468;2023-07-13T05:26:00;19.70;90.90
32640;DHT22;19049;52.524;11.468;2023-07-13T05:28:27;19.70;97.70
32640;DHT22;19049;52.524;11.468;2023-07-13T05:30:53;20.20;92.60
32640;DHT22;19049;52.524;11.468;2023-07-13T05:33:19;21.20;97.20
32640;DHT22;19049;52.524;11.468;2023-07-13T05:35:45;20.80;90.40
32640;DHT22;19049;52.524;11.468;2023-07-13T05:38:11;21.10;90.20
32640;DHT22;19049;52.524;11.468;2023-07-13T05:40:37;21.40;90.10
32640;DHT22;19049;52.524;11.468;2023-07-13T05:43:03;21.60;89.50
32640;DHT22;19049;52.524;11.468;2023-07-13T05:45:29;21.80;88.40
32640;DHT22;19049;52.524;11.468;2023-07-13T05:47:54;22.00;87.50
32640;DHT22;19049;52.524;11.468;2023-07-13T05:50:20;21.60;87.00
32640;DHT22;19049;52.524;11.468;2023-07-13T05:52:46;22.70;93.70
32640;DHT22;19049;52.524;11.468;2023-07-13T05:57:38;22.60;90.20
32640;DHT22;19049;52.524;11.468;2023-07-13T06:00:04;23.40;82.80
32640;DHT22;19049;52.524;11.468;2023-07-13T06:02:30;22.60;90.70
32640;DHT22;19049;52.524;11.468;2023-07-13T06:17:06;23.50;85.20
32640;DHT22;19049;52.524;11.468;2023-07-13T06:21:58;23.50;88.90
32640;DHT22;19049;52.524;11.468;2023-07-13T06:24:24;23.40;91.20
32640;DHT22;19049;52.524;11.468;2023-07-13T06:31:42;23.20;90.50
32640;DHT22;19049;52.524;11.468;2023-07-13T06:34:08;24.20;90.60
32640;DHT22;19049;52.524;11.468;2023-07-13T06:36:34;24.60;89.70
32640;DHT22;19049;52.524;11.468;2023-07-13T06:39:02;23.90;89.40
32640;DHT22;19049;52.524;11.468;2023-07-13T06:41:27;24.10;74.40
32640;DHT22;19049;52.524;11.468;2023-07-13T06:43:53;24.30;91.20
32640;DHT22;19049;52.524;11.468;2023-07-13T06:46:21;24.20;74.40
32640;DHT22;19049;52.524;11.468;2023-07-13T06:48:47;24.30;74.70
32640;DHT22;19049;52.524;11.468;2023-07-13T06:51:13;25.00;86.60
32640;DHT22;19049;52.524;11.468;2023-07-13T06:53:38;25.20;84.20
32640;DHT22;19049;52.524;11.468;2023-07-13T06:56:04;24.10;86.50
32640;DHT22;19049;52.524;11.468;2023-07-13T07:00:56;24.50;67.30
32640;DHT22;19049;52.524;11.468;2023-07-13T07:05:48;24.20;82.70
32640;DHT22;19049;52.524;11.468;2023-07-13T07:08:14;25.10;68.70
32640;DHT22;19049;52.524;11.468;2023-07-13T07:10:40;25.30;68.20
32640;DHT22;19049;52.524;11.468;2023-07-13T07:13:06;25.50;80.60
32640;DHT22;19049;52.524;11.468;2023-07-13T07:17:57;25.40;79.00
32640;DHT22;19049;52.524;11.468;2023-07-13T07:25:15;25.80;78.30
32640;DHT22;19049;52.524;11.468;2023-07-13T07:27:41;26.10;78.10
32640;DHT22;19049;52.524;11.468;2023-07-13T07:30:07;26.10;62.20
32640;DHT22;19049;52.524;11.468;2023-07-13T07:32:33;26.60;77.00
32640;DHT22;19049;52.524;11.468;2023-07-13T07:34:58;26.80;75.90
32640;DHT22;19049;52.524;11.468;2023-07-13T07:37:24;27.10;78.70
32640;DHT22;19049;52.524;11.468;2023-07-13T07:39:50;25.90;71.90
32640;DHT22;19049;52.524;11.468;2023-07-13T07:42:16;26.30;71.50
32640;DHT22;19049;52.524;11.468;2023-07-13T07:44:42;27.00;65.00
32640;DHT22;19049;52.524;11.468;2023-07-13T07:47:08;26.60;59.30
32640;DHT22;19049;52.524;11.468;2023-07-13T07:49:34;26.80;71.20
32640;DHT22;19049;52.524;11.468;2023-07-13T07:52:00;27.90;71.60
32640;DHT22;19049;52.524;11.468;2023-07-13T07:54:26;27.10;75.80
32640;DHT22;19049;52.524;11.468;2023-07-13T07:56:51;27.40;60.40
32640;DHT22;19049;52.524;11.468;2023-07-13T07:59:19;27.50;60.10
32640;DHT22;19049;52.524;11.468;2023-07-13T08:01:44;27.70;60.50
32640;DHT22;19049;52.524;11.468;2023-07-13T08:04:11;27.90;59.60
32640;DHT22;19049;52.524;11.468;2023-07-13T08:06:37;27.90;67.70
32640;DHT22;19049;52.524;11.468;2023-07-13T08:09:03;27.90;61.50
32640;DHT22;19049;52.524;11.468;2023-07-13T08:11:29;28.40;67.30
32640;DHT22;19049;52.524;11.468;2023-07-13T08:13:55;28.00;65.70
32640;DHT22;19049;52.524;11.468;2023-07-13T08:16:21;27.90;56.00
32640;DHT22;19049;52.524;11.468;2023-07-13T08:18:47;28.20;64.00
32640;DHT22;19049;52.524;11.468;2023-07-13T08:21:12;27.60;62.70
32640;DHT22;19049;52.524;11.468;2023-07-13T08:23:38;27.70;63.20
32640;DHT22;19049;52.524;11.468;2023-07-13T08:26:04;26.40;63.20
32640;DHT22;19049;52.524;11.468;2023-07-13T08:28:30;27.10;54.10
32640;DHT22;19049;52.524;11.468;2023-07-13T08:31:03;26.90;54.50
32640;DHT22;19049;52.524;11.468;2023-07-13T08:33:30;27.20;68.60
32640;DHT22;19049;52.524;11.468;2023-07-13T08:35:55;27.20;72.90
32640;DHT22;19049;52.524;11.468;2023-07-13T08:38:22;26.60;56.70
32640;DHT22;19049;52.524;11.468;2023-07-13T08:40:56;26.80;71.40
32640;DHT22;19049;52.524;11.468;2023-07-13T08:43:41;26.60;55.50
32640;DHT22;19049;52.524;11.468;2023-07-13T08:46:46;26.50;55.50
32640;DHT22;19049;52.524;11.468;2023-07-13T08:49:13;26.10;71.50
32640;DHT22;19049;52.524;11.468;2023-07-13T08:51:58;26.30;56.20
32640;DHT22;19049;52.524;11.468;2023-07-13T08:54:29;26.30;56.80
32640;DHT22;19049;52.524;11.468;2023-07-13T08:56:56;26.20;57.10
32640;DHT22;19049;52.524;11.468;2023-07-13T08:59:26;26.30;57.60
32640;DHT22;19049;52.524;11.468;2023-07-13T09:04:23;26.50;57.30
32640;DHT22;19049;52.524;11.468;2023-07-13T09:12:14;26.70;56.70
32640;DHT22;19049;52.524;11.468;2023-07-13T09:14:42;26.70;55.60
32640;DHT22;19049;52.524;11.468;2023-07-13T09:17:18;26.60;54.50
32640;DHT22;19049;52.524;11.468;2023-07-13T09:19:47;26.50;52.90
32640;DHT22;19049;52.524;11.468;2023-07-13T09:22:18;26.30;52.80
32640;DHT22;19049;52.524;11.468;2023-07-13T09:27:18;25.80;53.90
32640;DHT22;19049;52.524;11.468;2023-07-13T09:29:49;25.50;54.60
32640;DHT22;19049;52.524;11.468;2023-07-13T09:32:19;25.30;56.10
32640;DHT22;19049;52.524;11.468;2023-07-13T09:34:53;25.40;73.80
32640;DHT22;19049;52.524;11.468;2023-07-13T09:37:31;25.30;57.50
32640;DHT22;19049;52.524;11.468;2023-07-13T09:39:59;25.40;57.40
32640;DHT22;19049;52.524;11.468;2023-07-13T09:42:28;25.50;57.40
32640;DHT22;19049;52.524;11.468;2023-07-13T09:44:59;25.60;57.70
32640;DHT22;19049;52.524;11.468;2023-07-13T09:47:27;25.70;57.50
32640;DHT22;19049;52.524;11.468;2023-07-13T09:49:58;25.80;57.70
32640;DHT22;19049;52.524;11.468;2023-07-13T09:52:25;25.80;57.80
32640;DHT22;19049;52.524;11.468;2023-07-13T09:54:53;25.90;58.60
32640;DHT22;19049;52.524;11.468;2023-07-13T09:57:25;26.00;60.30
32640;DHT22;19049;52.524;11.468;2023-07-13T09:59:52;26.40;69.40
32640;DHT22;19049;52.524;11.468;2023-07-13T10:02:35;26.40;56.80
32640;DHT22;19049;52.524;11.468;2023-07-13T10:07:29;26.60;55.40
32640;DHT22;19049;52.524;11.468;2023-07-13T10:09:56;26.70;54.90
32640;DHT22;19049;52.524;11.468;2023-07-13T10:12:23;26.80;52.90
32640;DHT22;19049;52.524;11.468;2023-07-13T10:14:52;27.40;65.80
32640;DHT22;19049;52.524;11.468;2023-07-13T10:17:27;27.00;52.70
32640;DHT22;19049;52.524;11.468;2023-07-13T10:20:02;27.10;51.70
32640;DHT22;19049;52.524;11.468;2023-07-13T10:22:52;27.90;64.10
32640;DHT22;19049;52.524;11.468;2023-07-13T10:25:22;27.30;51.70
32640;DHT22;19049;52.524;11.468;2023-07-13T10:27:54;27.40;50.60
32640;DHT22;19049;52.524;11.468;2023-07-13T10:30:24;27.50;51.30
32640;DHT22;19049;52.524;11.468;2023-07-13T10:32:53;27.60;48.50
32640;DHT22;19049;52.524;11.468;2023-07-13T10:35:21;27.60;50.50
32640;DHT22;19049;52.524;11.468;2023-07-13T10:38:01;27.60;50.30
32640;DHT22;19049;52.524;11.468;2023-07-13T10:40:55;27.50;49.50
32640;DHT22;19049;52.524;11.468;2023-07-13T10:43:36;27.40;49.10
32640;DHT22;19049;52.524;11.468;2023-07-13T10:46:05;27.40;50.80
32640;DHT22;19049;52.524;11.468;2023-07-13T10:48:32;27.40;50.30
32640;DHT22;19049;52.524;11.468;2023-07-13T10:51:00;27.40;51.00
32640;DHT22;19049;52.524;11.468;2023-07-13T10:53:32;27.50;50.40
32640;DHT22;19049;52.524;11.468;2023-07-13T10:56:23;27.50;49.10
32640;DHT22;19049;52.524;11.468;2023-07-13T10:59:15;27.50;49.40
32640;DHT22;19049;52.524;11.468;2023-07-13T11:01:58;27.60;50.30
32640;DHT22;19049;52.524;11.468;2023-07-13T11:04:27;27.80;50.90
32640;DHT22;19049;52.524;11.468;2023-07-13T11:06:59;27.90;49.50
32640;DHT22;19049;52.524;11.468;2023-07-13T11:12:29;28.20;48.60
32640;DHT22;19049;52.524;11.468;2023-07-13T11:15:13;28.30;48.10
32640;DHT22;19049;52.524;11.468;2023-07-13T11:17:51;28.30;47.70
32640;DHT22;19049;52.524;11.468;2023-07-13T11:20:32;28.30;47.00
32640;DHT22;19049;52.524;11.468;2023-07-13T11:25:38;28.80;66.90
32640;DHT22;19049;52.524;11.468;2023-07-13T11:30:37;28.20;47.60
32640;DHT22;19049;52.524;11.468;2023-07-13T11:38:16;28.30;46.90
32640;DHT22;19049;52.524;11.468;2023-07-13T11:40:44;28.00;56.70
32640;DHT22;19049;52.524;11.468;2023-07-13T11:43:13;28.60;56.90
32640;DHT22;19049;52.524;11.468;2023-07-13T11:45:39;28.70;59.60
32640;DHT22;19049;52.524;11.468;2023-07-13T11:48:04;29.40;57.10
32640;DHT22;19049;52.524;11.468;2023-07-13T11:52:58;27.60;55.50
32640;DHT22;19049;52.524;11.468;2023-07-13T11:55:24;28.80;57.10
32640;DHT22;19049;52.524;11.468;2023-07-13T11:57:54;28.80;58.20
32640;DHT22;19049;52.524;11.468;2023-07-13T12:00:23;27.50;56.50
32640;DHT22;19049;52.524;11.468;2023-07-13T12:02:52;28.00;45.20
32640;DHT22;19049;52.524;11.468;2023-07-13T12:05:19;27.70;57.50
32640;DHT22;19049;52.524;11.468;2023-07-13T12:07:46;27.80;45.40
32640;DHT22;19049;52.524;11.468;2023-07-13T12:12:58;27.70;60.10
32640;DHT22;19049;52.524;11.468;2023-07-13T12:15:37;27.30;46.90
32640;DHT22;19049;52.524;11.468;2023-07-13T12:20:38;27.20;48.20
32640;DHT22;19049;52.524;11.468;2023-07-13T12:28:23;28.30;58.70
32640;DHT22;19049;52.524;11.468;2023-07-13T12:30:59;27.50;58.10
32640;DHT22;19049;52.524;11.468;2023-07-13T12:33:28;28.80;61.90
32640;DHT22;19049;52.524;11.468;2023-07-13T12:35:54;28.40;61.70
32640;DHT22;19049;52.524;11.468;2023-07-13T12:38:21;29.20;59.70
32640;DHT22;19049;52.524;11.468;2023-07-13T12:40:50;28.60;59.20
32640;DHT22;19049;52.524;11.468;2023-07-13T12:43:17;28.70;47.80
32640;DHT22;19049;52.524;11.468;2023-07-13T12:48:41;29.20;45.90
32640;DHT22;19049;52.524;11.468;2023-07-13T12:51:11;29.30;45.80
32640;DHT22;19049;52.524;11.468;2023-07-13T12:54:06;29.40;45.00
32640;DHT22;19049;52.524;11.468;2023-07-13T12:56:29;29.60;53.70
32640;DHT22;19049;52.524;11.468;2023-07-13T12:59:03;29.60;43.70
32640;DHT22;19049;52.524;11.468;2023-07-13T13:01:31;30.40;53.30
32640;DHT22;19049;52.524;11.468;2023-07-13T13:04:01;29.60;42.20
32640;DHT22;19049;52.524;11.468;2023-07-13T13:08:58;29.30;44.00
32640;DHT22;19049;52.524;11.468;2023-07-13T13:11:24;29.90;55.50
32640;DHT22;19049;52.524;11.468;2023-07-13T13:13:52;29.30;44.30
32640;DHT22;19049;52.524;11.468;2023-07-13T13:18:55;29.50;44.60
32640;DHT22;19049;52.524;11.468;2023-07-13T13:21:24;30.00;52.40
32640;DHT22;19049;52.524;11.468;2023-07-13T13:23:51;29.40;51.00
32640;DHT22;19049;52.524;11.468;2023-07-13T13:26:19;29.00;52.40
32640;DHT22;19049;52.524;11.468;2023-07-13T13:28:46;30.30;52.20
32640;DHT22;19049;52.524;11.468;2023-07-13T13:31:14;30.00;50.90
32640;DHT22;19049;52.524;11.468;2023-07-13T13:33:42;30.00;42.80
32640;DHT22;19049;52.524;11.468;2023-07-13T13:36:18;30.20;56.40
32640;DHT22;19049;52.524;11.468;2023-07-13T13:38:44;30.20;51.20
32640;DHT22;19049;52.524;11.468;2023-07-13T13:41:11;29.70;49.20
32640;DHT22;19049;52.524;11.468;2023-07-13T13:46:21;29.40;52.70
32640;DHT22;19049;52.524;11.468;2023-07-13T13:51:19;28.40;42.90
32640;DHT22;19049;52.524;11.468;2023-07-13T13:53:46;30.00;50.50
32640;DHT22;19049;52.524;11.468;2023-07-13T13:56:13;29.10;42.30
32640;DHT22;19049;52.524;11.468;2023-07-13T13:58:39;29.10;45.60
32640;DHT22;19049;52.524;11.468;2023-07-13T14:01:10;29.10;53.30
32640;DHT22;19049;52.524;11.468;2023-07-13T14:03:37;29.60;49.70
32640;DHT22;19049;52.524;11.468;2023-07-13T14:08:29;29.60;48.60
32640;DHT22;19049;52.524;11.468;2023-07-13T14:10:57;30.30;40.20
32640;DHT22;19049;52.524;11.468;2023-07-13T14:13:30;31.00;47.90
32640;DHT22;19049;52.524;11.468;2023-07-13T14:18:24;31.20;50.80
32640;DHT22;19049;52.524;11.468;2023-07-13T14:20:50;31.20;50.50
32640;DHT22;19049;52.524;11.468;2023-07-13T14:23:17;30.10;51.20
32640;DHT22;19049;52.524;11.468;2023-07-13T14:25:47;31.20;50.70
32640;DHT22;19049;52.524;11.468;2023-07-13T14:30:45;29.90;48.00
32640;DHT22;19049;52.524;11.468;2023-07-13T14:40:31;28.80;42.10
32640;DHT22;19049;52.524;11.468;2023-07-13T14:42:58;28.00;40.60
32640;DHT22;19049;52.524;11.468;2023-07-13T14:45:24;27.70;46.80
32640;DHT22;19049;52.524;11.468;2023-07-13T14:47:50;28.40;50.90
32640;DHT22;19049;52.524;11.468;2023-07-13T14:50:31;27.90;49.30
32640;DHT22;19049;52.524;11.468;2023-07-13T14:52:58;27.20;56.10
32640;DHT22;19049;52.524;11.468;2023-07-13T14:55:23;26.70;47.30
32640;DHT22;19049;52.524;11.468;2023-07-13T14:57:52;26.20;61.30
32640;DHT22;19049;52.524;11.468;2023-07-13T15:00:21;25.80;51.40
32640;DHT22;19049;52.524;11.468;2023-07-13T15:02:51;25.30;53.60
32640;DHT22;19049;52.524;11.468;2023-07-13T15:05:25;24.80;53.50
32640;DHT22;19049;52.524;11.468;2023-07-13T15:07:52;24.20;65.40
32640;DHT22;19049;52.524;11.468;2023-07-13T15:10:28;24.20;65.20
32640;DHT22;19049;52.524;11.468;2023-07-13T15:13:21;23.60;54.60
32640;DHT22;19049;52.524;11.468;2023-07-13T15:15:49;23.20;60.30
32640;DHT22;19049;52.524;11.468;2023-07-13T15:18:18;22.60;76.40
32640;DHT22;19049;52.524;11.468;2023-07-13T15:20:46;22.70;61.00
32640;DHT22;19049;52.524;11.468;2023-07-13T15:23:16;22.20;59.80
32640;DHT22;19049;52.524;11.468;2023-07-13T15:25:43;22.20;60.60
32640;DHT22;19049;52.524;11.468;2023-07-13T15:28:10;22.10;59.70
32640;DHT22;19049;52.524;11.468;2023-07-13T15:33:22;21.80;76.30
32640;DHT22;19049;52.524;11.468;2023-07-13T15:35:49;21.10;79.30
32640;DHT22;19049;52.524;11.468;2023-07-13T15:38:25;20.80;78.50
32640;DHT22;19049;52.524;11.468;2023-07-13T15:40:52;21.70;81.50
32640;DHT22;19049;52.524;11.468;2023-07-13T15:43:18;20.70;80.10
32640;DHT22;19049;52.524;11.468;2023-07-13T15:45:45;21.00;81.40
32640;DHT22;19049;52.524;11.468;2023-07-13T15:48:22;20.80;64.40
32640;DHT22;19049;52.524;11.468;2023-07-13T15:51:12;20.80;65.50
32640;DHT22;19049;52.524;11.468;2023-07-13T15:53:38;20.80;65.30
32640;DHT22;19049;52.524;11.468;2023-07-13T15:56:18;20.70;67.10
32640;DHT22;19049;52.524;11.468;2023-07-13T15:58:44;20.70;68.80
32640;DHT22;19049;52.524;11.468;2023-07-13T16:01:10;20.70;67.00
32640;DHT22;19049;52.524;11.468;2023-07-13T16:03:36;20.80;67.30
32640;DHT22;19049;52.524;11.468;2023-07-13T16:08:31;22.20;83.70
32640;DHT22;19049;52.524;11.468;2023-07-13T16:10:58;21.70;68.80
32640;DHT22;19049;52.524;11.468;2023-07-13T16:13:25;23.00;82.40
32640;DHT22;19049;52.524;11.468;2023-07-13T16:15:51;22.90;70.40
32640;DHT22;19049;52.524;11.468;2023-07-13T16:18:17;23.20;79.30
32640;DHT22;19049;52.524;11.468;2023-07-13T16:20:46;22.40;78.10
32640;DHT22;19049;52.524;11.468;2023-07-13T16:23:13;22.90;62.90
32640;DHT22;19049;52.524;11.468;2023-07-13T16:25:40;22.90;62.40
32640;DHT22;19049;52.524;11.468;2023-07-13T16:28:08;23.60;78.00
32640;DHT22;19049;52.524;11.468;2023-07-13T16:33:01;22.90;61.60
32640;DHT22;19049;52.524;11.468;2023-07-13T16:35:34;22.70;75.80
32640;DHT22;19049;52.524;11.468;2023-07-13T16:38:02;22.40;70.80
32640;DHT22;19049;52.524;11.468;2023-07-13T16:40:32;23.50;75.80
32640;DHT22;19049;52.524;11.468;2023-07-13T16:42:59;22.40;75.30
32640;DHT22;19049;52.524;11.468;2023-07-13T16:45:29;22.30;69.20
32640;DHT22;19049;52.524;11.468;2023-07-13T16:48:09;22.70;60.90
32640;DHT22;19049;52.524;11.468;2023-07-13T16:50:38;22.60;75.10
32640;DHT22;19049;52.524;11.468;2023-07-13T16:53:25;23.30;77.30
32640;DHT22;19049;52.524;11.468;2023-07-13T16:55:52;23.10;62.30
32640;DHT22;19049;52.524;11.468;2023-07-13T16:58:22;23.30;73.00
32640;DHT22;19049;52.524;11.468;2023-07-13T17:00:51;24.50;63.60
32640;DHT22;19049;52.524;11.468;2023-07-13T17:03:17;22.30;68.30
32640;DHT22;19049;52.524;11.468;2023-07-13T17:05:45;21.90;75.20
32640;DHT22;19049;52.524;11.468;2023-07-13T17:08:17;22.40;75.60
32640;DHT22;19049;52.524;11.468;2023-07-13T17:10:52;22.80;76.10
32640;DHT22;19049;52.524;11.468;2023-07-13T17:13:20;22.50;75.90
32640;DHT22;19049;52.524;11.468;2023-07-13T17:15:48;22.80;75.90
32640;DHT22;19049;52.524;11.468;2023-07-13T17:18:16;22.80;76.20
32640;DHT22;19049;52.524;11.468;2023-07-13T17:20:44;22.80;75.40
32640;DHT22;19049;52.524;11.468;2023-07-13T17:23:16;22.00;73.90
32640;DHT22;19049;52.524;11.468;2023-07-13T17:25:44;22.60;60.20
32640;DHT22;19049;52.524;11.468;2023-07-13T17:28:10;21.80;59.70
32640;DHT22;19049;52.524;11.468;2023-07-13T17:30:39;23.20;74.50
32640;DHT22;19049;52.524;11.468;2023-07-13T17:33:10;23.10;75.30
32640;DHT22;19049;52.524;11.468;2023-07-13T17:35:42;21.90;76.30